Time;durP1;ratioP1;P1;durP2;ratioP2;P2;SDS_P1;SDS_P2;PMS_P1;PMS_P2;Temp;Humidity;BMP_temperature;BMP_pressure;BME280_temperature;BME280_humidity;BME280_pressure;Samples;Min_cycle;Max_cycle;Signal;HPM_P1;HPM_P2
2022/09/28 00:00:10;;;;;;;3.80;2.05;;;;;;;;;;5037551;28;20090;-26
2022/09/28 00:02:37;;;;;;;5.93;1.90;;;;;;;;;;5037176;28;20029;-25
2022/09/28 00:05:04;;;;;;;6.78;1.70;;;;;;;;;;5054986;28;20033;-28
2022/09/28 00:07:30;;;;;;;5.95;1.65;;;;;;;;;;5055109;28;20094;-31
2022/09/28 00:09:56;;;;;;;6.50;1.98;;;;;;;;;;5055203;28;20025;-26
2022/09/28 00:12:22;;;;;;;7.63;1.73;;;;;;;;;;5054745;28;20033;-27
2022/09/28 00:14:48;;;;;;;9.75;3.22;;;;;;;;;;5054865;28;20127;-26
2022/09/28 00:17:15;;;;;;;7.70;2.55;;;;;;;;;;5054743;28;20025;-26
2022/09/28 00:19:43;;;;;;;2.20;1.60;;;;;;;;;;5054747;28;20055;-27
2022/09/28 00:22:09;;;;;;;6.60;1.80;;;;;;;;;;5054915;28;20057;-26
2022/09/28 00:24:36;;;;;;;10.48;1.95;;;;;;;;;;5037180;28;20037;-25
2022/09/28 00:27:03;;;;;;;4.28;1.45;;;;;;;;;;5054684;28;20474;-27
2022/09/28 00:29:35;;;;;;;6.10;1.60;;;;;;;;;;5037134;28;20055;-25
2022/09/28 00:32:12;;;;;;;7.13;2.40;;;;;;;;;;5054798;28;20025;-25
2022/09/28 00:34:44;;;;;;;3.08;1.75;;;;;;;;;;5054907;28;20331;-25
2022/09/28 00:37:11;;;;;;;7.95;1.75;;;;;;;;;;5037092;28;20456;-29
2022/09/28 00:39:40;;;;;;;5.70;3.00;;;;;;;;;;5054543;28;20112;-25
2022/09/28 00:42:14;;;;;;;7.05;2.15;;;;;;;;;;5054515;28;20381;-26
2022/09/28 00:44:43;;;;;;;11.32;2.10;;;;;;;;;;5036966;28;20033;-28
2022/09/28 00:47:12;;;;;;;5.40;1.95;;;;;;;;;;5054473;28;20051;-25
2022/09/28 00:49:41;;;;;;;3.22;1.50;;;;;;;;;;5054487;28;20020;-25
2022/09/28 00:52:10;;;;;;;5.78;1.83;;;;;;;;;;5054538;28;20385;-25
2022/09/28 00:54:36;;;;;;;2.88;1.73;;;;;;;;;;5054395;28;20032;-26
2022/09/28 00:57:03;;;;;;;5.18;1.77;;;;;;;;;;5054710;28;20017;-27
2022/09/28 00:59:31;;;;;;;4.97;1.40;;;;;;;;;;5054393;28;20025;-30
2022/09/28 01:01:57;;;;;;;5.35;1.95;;;;;;;;;;5054557;28;20025;-27
2022/09/28 01:04:23;;;;;;;3.95;1.50;;;;;;;;;;5054159;28;20525;-27
2022/09/28 01:06:50;;;;;;;8.23;1.70;;;;;;;;;;5054298;28;20230;-28
2022/09/28 01:09:17;;;;;;;6.03;1.95;;;;;;;;;;5054300;28;20499;-30
2022/09/28 01:11:43;;;;;;;7.35;1.67;;;;;;;;;;5054444;28;20041;-28
2022/09/28 01:14:11;;;;;;;6.57;1.40;;;;;;;;;;5036575;28;20032;-27
2022/09/28 01:16:43;;;;;;;7.22;1.80;;;;;;;;;;5054478;28;20037;-25
2022/09/28 01:19:27;;;;;;;4.57;1.38;;;;;;;;;;5056685;28;20025;-25
2022/09/28 01:21:59;;;;;;;8.18;1.73;;;;;;;;;;5058308;28;20040;-25
2022/09/28 01:24:43;;;;;;;3.45;1.98;;;;;;;;;;5058056;28;20029;-27
2022/09/28 01:27:13;;;;;;;5.28;1.60;;;;;;;;;;5057999;28;20032;-26
2022/09/28 01:29:45;;;;;;;6.68;1.95;;;;;;;;;;5058216;28;20028;-26
2022/09/28 01:32:15;;;;;;;5.55;1.55;;;;;;;;;;5057740;28;20028;-25
2022/09/28 01:34:44;;;;;;;8.43;2.38;;;;;;;;;;5057801;28;20017;-28
2022/09/28 01:37:12;;;;;;;4.93;1.83;;;;;;;;;;5057753;28;20029;-25
2022/09/28 01:39:44;;;;;;;3.78;1.80;;;;;;;;;;5058030;28;20033;-25
2022/09/28 01:42:14;;;;;;;6.45;1.30;;;;;;;;;;5057912;28;20112;-25
2022/09/28 01:44:42;;;;;;;4.60;1.10;;;;;;;;;;5057651;28;20025;-26
2022/09/28 01:47:10;;;;;;;3.15;1.48;;;;;;;;;;5057538;28;20033;-26
2022/09/28 01:49:39;;;;;;;9.77;1.70;;;;;;;;;;5057522;28;20033;-28
2022/09/28 01:52:18;;;;;;;3.75;1.95;;;;;;;;;;5057428;28;20033;-25
2022/09/28 01:54:54;;;;;;;6.03;1.67;;;;;;;;;;5057531;28;20040;-24
2022/09/28 01:57:23;;;;;;;6.50;1.90;;;;;;;;;;5057411;28;20031;-25
2022/09/28 02:00:00;;;;;;;4.40;1.70;;;;;;;;;;5057320;28;20021;-25
2022/09/28 02:02:31;;;;;;;3.30;1.75;;;;;;;;;;5057042;28;20472;-26
2022/09/28 02:05:01;;;;;;;9.27;2.40;;;;;;;;;;5057571;28;20374;-25
2022/09/28 02:07:41;;;;;;;3.95;1.40;;;;;;;;;;5057568;28;20040;-26
2022/09/28 02:10:12;;;;;;;5.63;1.60;;;;;;;;;;5057210;28;20079;-28
2022/09/28 02:12:46;;;;;;;8.73;1.65;;;;;;;;;;5057022;28;20028;-26
2022/09/28 02:15:18;;;;;;;6.57;1.50;;;;;;;;;;5057392;28;20025;-25
2022/09/28 02:17:45;;;;;;;5.10;1.75;;;;;;;;;;5039721;28;20356;-26
2022/09/28 02:20:11;;;;;;;4.95;1.38;;;;;;;;;;5057280;28;20025;-24
2022/09/28 02:22:46;;;;;;;2.63;1.67;;;;;;;;;;5056884;28;20335;-24
2022/09/28 02:25:18;;;;;;;5.50;3.30;;;;;;;;;;5056856;28;20029;-29
2022/09/28 02:27:44;;;;;;;;;;;;;;;;;;5057587;28;20115;-26
2022/09/28 02:30:10;;;;;;;5.85;1.95;;;;;;;;;;5056324;28;19908;-25
2022/09/28 02:32:39;;;;;;;2.80;1.10;;;;;;;;;;5056648;28;20450;-31
2022/09/28 02:35:09;;;;;;;2.55;1.42;;;;;;;;;;5056640;28;20446;-26
2022/09/28 02:37:35;;;;;;;4.40;2.50;;;;;;;;;;5056991;28;20025;-24
2022/09/28 02:40:02;;;;;;;3.50;1.10;;;;;;;;;;5056917;28;20017;-25
2022/09/28 02:42:42;;;;;;;8.30;1.98;;;;;;;;;;5056530;28;20059;-26
2022/09/28 02:45:14;;;;;;;3.38;1.60;;;;;;;;;;5056568;28;20029;-26
2022/09/28 02:47:59;;;;;;;3.17;1.20;;;;;;;;;;5056800;28;20166;-27
2022/09/28 02:50:33;;;;;;;5.75;1.48;;;;;;;;;;5056407;28;20063;-29
2022/09/28 02:52:59;;;;;;;3.60;1.63;;;;;;;;;;5056274;28;20036;-26
2022/09/28 02:55:31;;;;;;;6.65;1.42;;;;;;;;;;5056418;28;20517;-24
2022/09/28 02:58:21;;;;;;;5.53;1.70;;;;;;;;;;5056300;28;20025;-25
2022/09/28 03:00:55;;;;;;;7.07;1.67;;;;;;;;;;5045870;28;20025;-27
2022/09/28 03:03:27;;;;;;;3.58;1.67;;;;;;;;;;5055931;28;20481;-27
2022/09/28 03:05:59;;;;;;;3.13;1.15;;;;;;;;;;5056175;28;20112;-24
2022/09/28 03:08:26;;;;;;;2.78;1.38;;;;;;;;;;5056355;28;20033;-24
2022/09/28 03:10:58;;;;;;;3.08;1.70;;;;;;;;;;5056300;28;20100;-24
2022/09/28 03:13:25;;;;;;;3.67;1.60;;;;;;;;;;5056035;28;20420;-26
2022/09/28 03:15:51;;;;;;;4.20;1.27;;;;;;;;;;5038464;28;20025;-25
2022/09/28 03:18:17;;;;;;;1.98;1.38;;;;;;;;;;5056190;28;20035;-26
2022/09/28 03:20:43;;;;;;;7.18;1.92;;;;;;;;;;5055847;28;20028;-29
2022/09/28 03:23:09;;;;;;;2.10;1.20;;;;;;;;;;5055781;28;20347;-26
2022/09/28 03:25:36;;;;;;;5.20;1.70;;;;;;;;;;5055794;28;20017;-25
2022/09/28 03:28:02;;;;;;;2.97;1.55;;;;;;;;;;5055703;28;20024;-25
2022/09/28 03:30:28;;;;;;;6.22;2.50;;;;;;;;;;5055932;28;20048;-25
2022/09/28 03:32:58;;;;;;;2.05;1.25;;;;;;;;;;5055708;28;20102;-25
2022/09/28 03:35:24;;;;;;;6.43;1.58;;;;;;;;;;5055820;28;20028;-26
2022/09/28 03:37:54;;;;;;;4.63;2.08;;;;;;;;;;5055799;28;20028;-29
2022/09/28 03:40:20;;;;;;;3.83;2.35;;;;;;;;;;5055736;28;20047;-26
2022/09/28 03:42:46;;;;;;;6.15;1.80;;;;;;;;;;5055189;28;20029;-27
2022/09/28 03:45:13;;;;;;;3.45;1.80;;;;;;;;;;5055339;28;20124;-24
2022/09/28 03:47:39;;;;;;;2.55;1.98;;;;;;;;;;5055224;28;20025;-25
2022/09/28 03:50:05;;;;;;;4.80;2.55;;;;;;;;;;5055988;28;20044;-25
2022/09/28 03:52:32;;;;;;;5.40;2.17;;;;;;;;;;5055074;28;20048;-24
2022/09/28 03:54:58;;;;;;;4.85;1.92;;;;;;;;;;5037627;28;20369;-28
2022/09/28 03:57:24;;;;;;;3.25;1.55;;;;;;;;;;5055159;28;20048;-27
2022/09/28 03:59:50;;;;;;;7.68;2.42;;;;;;;;;;5054929;28;20099;-25
2022/09/28 04:02:16;;;;;;;4.55;1.80;;;;;;;;;;5054834;28;20039;-25
2022/09/28 04:04:42;;;;;;;4.22;1.80;;;;;;;;;;5054679;28;20057;-25
2022/09/28 04:07:08;;;;;;;4.35;1.77;;;;;;;;;;5055030;28;20021;-25
2022/09/28 04:09:35;;;;;;;4.68;1.30;;;;;;;;;;5055037;28;20040;-25
2022/09/28 04:12:01;;;;;;;9.27;2.03;;;;;;;;;;5037126;28;20036;-29
2022/09/28 04:14:27;;;;;;;4.85;2.03;;;;;;;;;;5020905;28;20040;-28
2022/09/28 04:16:53;;;;;;;5.05;1.35;;;;;;;;;;5054682;28;20036;-29
2022/09/28 04:19:21;;;;;;;8.65;1.60;;;;;;;;;;5054763;28;20415;-26
2022/09/28 04:21:49;;;;;;;2.70;1.52;;;;;;;;;;5054600;28;20037;-27
2022/09/28 04:24:15;;;;;;;6.68;1.80;;;;;;;;;;5054460;28;20029;-24
2022/09/28 04:26:41;;;;;;;9.70;1.90;;;;;;;;;;5054469;28;20029;-24
2022/09/28 04:29:16;;;;;;;3.08;1.35;;;;;;;;;;5054448;28;20029;-26
2022/09/28 04:31:52;;;;;;;7.43;1.80;;;;;;;;;;5054609;28;20350;-28
2022/09/28 04:34:22;;;;;;;4.18;1.83;;;;;;;;;;5054610;28;20040;-24
2022/09/28 04:36:48;;;;;;;8.32;1.98;;;;;;;;;;5054584;28;20063;-25
2022/09/28 04:39:16;;;;;;;4.40;1.70;;;;;;;;;;5036693;28;20029;-25
2022/09/28 04:41:42;;;;;;;4.35;1.65;;;;;;;;;;5054540;28;20113;-25
2022/09/28 04:44:09;;;;;;;3.13;1.65;;;;;;;;;;5054162;28;20151;-26
2022/09/28 04:46:35;;;;;;;6.32;2.05;;;;;;;;;;5054454;28;20035;-31
2022/09/28 04:49:02;;;;;;;4.65;1.88;;;;;;;;;;5054185;28;20461;-25
2022/09/28 04:51:30;;;;;;;4.93;1.30;;;;;;;;;;5054386;28;20061;-28
2022/09/28 04:53:56;;;;;;;3.88;1.60;;;;;;;;;;5056357;28;20048;-27
2022/09/28 04:56:22;;;;;;;4.80;1.92;;;;;;;;;;5058296;28;20037;-26
2022/09/28 04:58:48;;;;;;;3.53;1.70;;;;;;;;;;5058167;28;20025;-28
2022/09/28 05:01:16;;;;;;;4.10;1.35;;;;;;;;;;5058365;28;20036;-25
2022/09/28 05:03:42;;;;;;;4.70;1.80;;;;;;;;;;5037000;28;20107;-25
2022/09/28 05:06:09;;;;;;;10.75;2.28;;;;;;;;;;5038085;28;20021;-27
2022/09/28 05:08:35;;;;;;;4.40;1.60;;;;;;;;;;5037807;28;20461;-28
2022/09/28 05:11:05;;;;;;;2.63;1.27;;;;;;;;;;5037915;28;20026;-25
2022/09/28 05:13:34;;;;;;;4.50;1.60;;;;;;;;;;5037999;28;20442;-26
2022/09/28 05:16:00;;;;;;;3.50;1.42;;;;;;;;;;5038242;28;20026;-29
2022/09/28 05:18:27;;;;;;;2.78;1.63;;;;;;;;;;5038214;28;20415;-27
2022/09/28 05:20:53;;;;;;;4.15;1.95;;;;;;;;;;5038113;28;20089;-25
2022/09/28 05:23:19;;;;;;;2.30;1.25;;;;;;;;;;5037721;28;20033;-26
2022/09/28 05:25:45;;;;;;;4.90;1.48;;;;;;;;;;5037724;28;20068;-24
2022/09/28 05:28:12;;;;;;;3.90;2.10;;;;;;;;;;5037759;28;20045;-29
2022/09/28 05:30:38;;;;;;;6.65;1.60;;;;;;;;;;5038075;28;20041;-25
2022/09/28 05:33:04;;;;;;;8.65;3.13;;;;;;;;;;5037627;28;20041;-27
2022/09/28 05:35:31;;;;;;;4.72;1.58;;;;;;;;;;5037741;28;20029;-25
2022/09/28 05:38:02;;;;;;;6.45;2.47;;;;;;;;;;5037593;28;20034;-25
2022/09/28 05:40:28;;;;;;;5.88;2.13;;;;;;;;;;5037871;28;20022;-29
2022/09/28 05:42:58;;;;;;;8.43;2.05;;;;;;;;;;5037463;28;20026;-32
2022/09/28 05:45:24;;;;;;;4.70;1.67;;;;;;;;;;5037246;28;20033;-27
2022/09/28 05:47:51;;;;;;;3.13;1.50;;;;;;;;;;5037341;28;20036;-26
2022/09/28 05:50:17;;;;;;;4.00;1.88;;;;;;;;;;5036176;28;20033;-25
2022/09/28 05:52:43;;;;;;;8.40;1.50;;;;;;;;;;5036884;28;20041;-26
2022/09/28 05:55:09;;;;;;;4.38;1.33;;;;;;;;;;5036169;28;20021;-25
2022/09/28 05:57:36;;;;;;;4.53;1.30;;;;;;;;;;5037172;28;20427;-29
2022/09/28 06:00:04;;;;;;;3.72;1.65;;;;;;;;;;5036897;28;20091;-27
2022/09/28 06:02:30;;;;;;;7.93;1.40;;;;;;;;;;5038118;28;20311;-24
2022/09/28 06:04:56;;;;;;;3.42;1.30;;;;;;;;;;5056571;28;20036;-25
2022/09/28 06:07:22;;;;;;;5.35;1.95;;;;;;;;;;5057157;28;20372;-26
2022/09/28 06:09:48;;;;;;;4.45;1.40;;;;;;;;;;5039321;28;20029;-28
2022/09/28 06:12:15;;;;;;;5.75;2.00;;;;;;;;;;5056720;28;20037;-28
2022/09/28 06:14:41;;;;;;;3.83;2.42;;;;;;;;;;5057156;28;20025;-25
2022/09/28 06:17:08;;;;;;;6.05;1.83;;;;;;;;;;5056874;28;20032;-26
2022/09/28 06:19:34;;;;;;;7.13;1.70;;;;;;;;;;5056759;28;20100;-25
2022/09/28 06:22:00;;;;;;;5.20;1.42;;;;;;;;;;5057039;28;20388;-27
2022/09/28 06:24:26;;;;;;;4.57;1.33;;;;;;;;;;5057018;28;20060;-28
2022/09/28 06:26:52;;;;;;;7.57;2.15;;;;;;;;;;5057470;28;20043;-28
2022/09/28 06:29:18;;;;;;;3.30;1.58;;;;;;;;;;5057454;28;20103;-24
2022/09/28 06:31:46;;;;;;;5.78;1.77;;;;;;;;;;5056825;28;20029;-27
2022/09/28 06:34:12;;;;;;;4.55;1.80;;;;;;;;;;5056625;28;20039;-25
2022/09/28 06:36:38;;;;;;;4.32;1.73;;;;;;;;;;5056583;28;20303;-26
2022/09/28 06:39:05;;;;;;;6.75;1.70;;;;;;;;;;5056172;28;20028;-25
2022/09/28 06:41:31;;;;;;;5.57;1.67;;;;;;;;;;5056268;28;20058;-25
2022/09/28 06:43:57;;;;;;;10.85;4.28;;;;;;;;;;5056242;28;20031;-26
2022/09/28 06:46:24;;;;;;;2.38;1.75;;;;;;;;;;5056118;28;20068;-27
2022/09/28 06:48:51;;;;;;;10.07;2.20;;;;;;;;;;5056407;28;20040;-25
2022/09/28 06:51:17;;;;;;;3.28;1.75;;;;;;;;;;5055871;28;20025;-25
2022/09/28 06:53:43;;;;;;;5.28;1.60;;;;;;;;;;5056180;28;20029;-28
2022/09/28 06:56:10;;;;;;;3.78;1.58;;;;;;;;;;5055864;28;20111;-25
2022/09/28 06:58:36;;;;;;;4.22;1.40;;;;;;;;;;5055819;28;20461;-25
2022/09/28 07:01:03;;;;;;;5.43;1.30;;;;;;;;;;5055908;28;20017;-30
2022/09/28 07:03:29;;;;;;;7.82;1.50;;;;;;;;;;5055539;28;20408;-26
2022/09/28 07:05:56;;;;;;;3.75;1.73;;;;;;;;;;5055798;28;20385;-28
2022/09/28 07:08:23;;;;;;;12.80;1.90;;;;;;;;;;5037980;28;20029;-27
2022/09/28 07:10:54;;;;;;;10.35;2.90;;;;;;;;;;5055545;28;20385;-28
2022/09/28 07:13:21;;;;;;;5.50;1.85;;;;;;;;;;5055454;28;20108;-28
2022/09/28 07:15:48;;;;;;;10.43;2.05;;;;;;;;;;5054770;28;20106;-28
2022/09/28 07:18:14;;;;;;;7.88;2.10;;;;;;;;;;5056085;28;20093;-25
2022/09/28 07:20:41;;;;;;;9.98;2.15;;;;;;;;;;5055669;28;20025;-29
2022/09/28 07:23:07;;;;;;;4.80;1.73;;;;;;;;;;5055341;28;20098;-25
2022/09/28 07:25:35;;;;;;;14.18;3.10;;;;;;;;;;5038065;28;20025;-28
2022/09/28 07:28:02;;;;;;;12.82;3.15;;;;;;;;;;5055381;28;20029;-28
2022/09/28 07:30:32;;;;;;;12.10;2.80;;;;;;;;;;5055259;28;20120;-28
2022/09/28 07:32:58;;;;;;;10.57;2.08;;;;;;;;;;5055243;28;20036;-30
2022/09/28 07:35:24;;;;;;;10.48;1.90;;;;;;;;;;5055146;28;20025;-25
2022/09/28 07:38:02;;;;;;;10.57;1.98;;;;;;;;;;5055812;28;20032;-27
2022/09/28 07:43:13;;;;;;;11.32;1.85;;;;;;;;;;5055192;28;20048;-27
2022/09/28 07:45:40;;;;;;;7.13;1.40;;;;;;;;;;5054996;28;20032;-29
2022/09/28 07:48:06;;;;;;;6.38;1.80;;;;;;;;;;5055008;28;20029;-27
2022/09/28 07:50:32;;;;;;;5.88;3.30;;;;;;;;;;5055066;28;20370;-25
2022/09/28 07:52:59;;;;;;;13.80;2.42;;;;;;;;;;5054764;28;20105;-28
2022/09/28 07:55:25;;;;;;;9.90;1.73;;;;;;;;;;5054980;28;20354;-26
2022/09/28 07:58:01;;;;;;;8.57;2.53;;;;;;;;;;5054952;28;20052;-25
2022/09/28 08:00:30;;;;;;;10.52;2.13;;;;;;;;;;5054747;28;20057;-29
2022/09/28 08:02:58;;;;;;;8.05;2.45;;;;;;;;;;5054320;28;20136;-25
2022/09/28 08:05:25;;;;;;;8.13;1.92;;;;;;;;;;5055022;28;20033;-26
2022/09/28 08:07:52;;;;;;;4.93;1.95;;;;;;;;;;5054959;28;20384;-27
2022/09/28 08:10:19;;;;;;;7.22;1.85;;;;;;;;;;5054502;28;20146;-31
2022/09/28 08:12:46;;;;;;;13.82;1.85;;;;;;;;;;5054370;28;20079;-33
2022/09/28 08:15:12;;;;;;;5.63;2.17;;;;;;;;;;5054764;28;20029;-27
2022/09/28 08:17:38;;;;;;;8.15;2.30;;;;;;;;;;5054493;28;20029;-30
2022/09/28 08:22:49;;;;;;;10.73;2.00;;;;;;;;;;5054766;28;20129;-26
2022/09/28 08:25:15;;;;;;;4.10;1.40;;;;;;;;;;5054745;28;20492;-23
2022/09/28 08:27:41;;;;;;;11.10;1.95;;;;;;;;;;5054557;28;20039;-28
2022/09/28 08:30:08;;;;;;;7.30;2.10;;;;;;;;;;5054631;28;20044;-24
2022/09/28 08:32:34;;;;;;;4.47;1.40;;;;;;;;;;5054275;28;20443;-27
2022/09/28 08:35:00;;;;;;;3.63;1.77;;;;;;;;;;5054033;28;20028;-25
2022/09/28 08:37:26;;;;;;;5.30;1.83;;;;;;;;;;5054353;28;20017;-25
2022/09/28 08:39:53;;;;;;;10.82;2.00;;;;;;;;;;5054070;28;20508;-25
2022/09/28 08:42:28;;;;;;;13.50;2.42;;;;;;;;;;5054398;28;20025;-24
2022/09/28 08:44:56;;;;;;;5.78;1.85;;;;;;;;;;5054431;28;20045;-29
2022/09/28 08:50:18;;;;;;;10.93;2.10;;;;;;;;;;5054424;28;20473;-28
2022/09/28 08:52:47;;;;;;;6.63;2.03;;;;;;;;;;5054101;28;20392;-24
2022/09/28 08:55:13;;;;;;;8.27;2.00;;;;;;;;;;5036540;28;20029;-25
2022/09/28 08:57:46;;;;;;;14.57;2.20;;;;;;;;;;5054075;28;20072;-24
2022/09/28 09:00:29;;;;;;;7.50;2.03;;;;;;;;;;5053892;28;20116;-26
2022/09/28 09:02:55;;;;;;;12.00;3.40;;;;;;;;;;5053847;28;20489;-26
2022/09/28 09:05:23;;;;;;;12.63;1.90;;;;;;;;;;5036543;28;20411;-26
2022/09/28 09:07:53;;;;;;;9.82;2.10;;;;;;;;;;5054080;28;20406;-27
2022/09/28 09:10:23;;;;;;;16.90;3.05;;;;;;;;;;5054331;28;20345;-26
2022/09/28 09:13:10;;;;;;;17.63;3.40;;;;;;;;;;5054301;28;20112;-27
2022/09/28 09:15:40;;;;;;;13.60;2.10;;;;;;;;;;5053996;28;20255;-24
2022/09/28 09:18:17;;;;;;;7.97;1.90;;;;;;;;;;5054013;28;20024;-24
2022/09/28 09:20:55;;;;;;;9.00;2.20;;;;;;;;;;5036450;28;20454;-25
2022/09/28 09:23:30;;;;;;;12.48;1.80;;;;;;;;;;5053875;28;20059;-25
2022/09/28 09:26:03;;;;;;;5.85;1.70;;;;;;;;;;5053701;28;20040;-24
2022/09/28 09:28:50;;;;;;;3.10;1.17;;;;;;;;;;5053934;28;20039;-25
2022/09/28 09:31:19;;;;;;;9.13;2.13;;;;;;;;;;5053991;28;20343;-23
2022/09/28 09:33:58;;;;;;;10.23;2.30;;;;;;;;;;5053544;28;20043;-24
2022/09/28 09:36:24;;;;;;;7.15;1.63;;;;;;;;;;5053999;28;20099;-23
2022/09/28 09:38:59;;;;;;;8.70;2.95;;;;;;;;;;5054170;28;20390;-27
2022/09/28 09:41:38;;;;;;;7.13;1.90;;;;;;;;;;5057580;28;20060;-23
2022/09/28 09:44:07;;;;;;;8.75;2.00;;;;;;;;;;5057268;28;20031;-24
2022/09/28 09:46:46;;;;;;;5.00;1.33;;;;;;;;;;5039800;28;20111;-26
2022/09/28 09:49:12;;;;;;;10.00;1.90;;;;;;;;;;5057597;28;20037;-25
2022/09/28 09:51:44;;;;;;;12.13;1.83;;;;;;;;;;5057147;28;20040;-26
2022/09/28 09:54:34;;;;;;;7.13;2.28;;;;;;;;;;5057153;28;20036;-24
2022/09/28 09:57:23;;;;;;;11.35;2.17;;;;;;;;;;5047657;28;20327;-24
2022/09/28 09:59:50;;;;;;;9.30;1.92;;;;;;;;;;5047134;28;20037;-31
2022/09/28 10:02:29;;;;;;;6.53;1.75;;;;;;;;;;5057287;28;20025;-27
2022/09/28 10:05:04;;;;;;;10.00;2.28;;;;;;;;;;5057134;28;20063;-24
2022/09/28 10:07:38;;;;;;;8.68;2.28;;;;;;;;;;5056938;28;20025;-23
2022/09/28 10:10:11;;;;;;;7.85;1.63;;;;;;;;;;5057271;28;20094;-24
2022/09/28 10:12:38;;;;;;;10.77;1.92;;;;;;;;;;5057088;28;20067;-24
2022/09/28 10:15:06;;;;;;;3.83;1.65;;;;;;;;;;5039275;28;20456;-24
2022/09/28 10:17:33;;;;;;;3.58;1.50;;;;;;;;;;5057100;28;20021;-26
2022/09/28 10:20:00;;;;;;;10.50;2.75;;;;;;;;;;5056946;28;20033;-30
2022/09/28 10:22:26;;;;;;;19.75;3.05;;;;;;;;;;5056660;28;20036;-29
2022/09/28 10:24:56;;;;;;;8.55;2.22;;;;;;;;;;5056619;28;20166;-26
2022/09/28 10:27:27;;;;;;;9.95;1.60;;;;;;;;;;5056885;28;20122;-24
2022/09/28 10:29:53;;;;;;;;;;;;;;;;;;5057727;28;20043;-26
2022/09/28 10:32:26;;;;;;;7.97;3.28;;;;;;;;;;5056598;28;19912;-28
2022/09/28 10:34:53;;;;;;;9.05;1.92;;;;;;;;;;5056517;28;20029;-28
2022/09/28 10:37:20;;;;;;;9.07;2.50;;;;;;;;;;5056425;28;20505;-30
2022/09/28 10:39:50;;;;;;;8.68;2.88;;;;;;;;;;5056707;28;20438;-25
2022/09/28 10:42:25;;;;;;;11.70;1.77;;;;;;;;;;5056103;28;20029;-25
2022/09/28 10:44:54;;;;;;;8.50;1.95;;;;;;;;;;5056530;28;20059;-29
2022/09/28 10:47:22;;;;;;;13.13;1.85;;;;;;;;;;5056070;28;20044;-28
2022/09/28 10:49:49;;;;;;;8.77;1.80;;;;;;;;;;5056363;28;20091;-24
2022/09/28 10:52:35;;;;;;;9.02;2.45;;;;;;;;;;5055313;28;20374;-28
2022/09/28 10:55:01;;;;;;;10.70;3.83;;;;;;;;;;5056064;28;20052;-27
2022/09/28 10:57:29;;;;;;;10.13;2.20;;;;;;;;;;5038573;28;20436;-25
2022/09/28 10:59:55;;;;;;;8.70;2.03;;;;;;;;;;5056207;28;20100;-25
2022/09/28 11:02:31;;;;;;;8.48;2.65;;;;;;;;;;5055867;28;20025;-26
2022/09/28 11:04:59;;;;;;;14.75;2.60;;;;;;;;;;5056057;28;20041;-25
2022/09/28 11:07:27;;;;;;;8.77;1.77;;;;;;;;;;5055824;28;20323;-26
2022/09/28 11:09:53;;;;;;;8.63;1.95;;;;;;;;;;5055774;28;20029;-26
2022/09/28 11:12:27;;;;;;;8.93;1.95;;;;;;;;;;5055811;28;20323;-25
2022/09/28 11:15:04;;;;;;;9.75;2.92;;;;;;;;;;5055847;28;20025;-25
2022/09/28 11:17:32;;;;;;;6.60;1.73;;;;;;;;;;5055863;28;20163;-28
2022/09/28 11:20:00;;;;;;;6.82;2.80;;;;;;;;;;5055470;28;20033;-29
2022/09/28 11:22:28;;;;;;;12.15;2.50;;;;;;;;;;5055362;28;20028;-29
2022/09/28 11:25:14;;;;;;;9.77;1.92;;;;;;;;;;5055404;28;20182;-25
2022/09/28 11:27:40;;;;;;;10.13;2.13;;;;;;;;;;5055665;28;20041;-24
2022/09/28 11:30:20;;;;;;;6.82;1.70;;;;;;;;;;5055408;28;20373;-28
2022/09/28 11:32:46;;;;;;;9.43;2.10;;;;;;;;;;5055273;28;20082;-25
2022/09/28 11:35:24;;;;;;;13.82;2.10;;;;;;;;;;5055193;28;20342;-25
2022/09/28 11:38:03;;;;;;;8.05;2.40;;;;;;;;;;5055488;28;20029;-24
2022/09/28 11:40:41;;;;;;;9.50;2.10;;;;;;;;;;5055191;28;20052;-24
2022/09/28 11:43:11;;;;;;;8.82;1.70;;;;;;;;;;5054920;28;20484;-25
2022/09/28 11:45:46;;;;;;;3.97;1.80;;;;;;;;;;5055106;28;20422;-29
2022/09/28 11:48:15;;;;;;;7.25;1.90;;;;;;;;;;5054982;28;20120;-25
2022/09/28 11:50:46;;;;;;;7.05;2.28;;;;;;;;;;5054835;28;20024;-26
2022/09/28 11:53:24;;;;;;;14.15;2.05;;;;;;;;;;5054829;28;20025;-26
2022/09/28 11:55:59;;;;;;;9.02;1.83;;;;;;;;;;5055148;28;20033;-26
2022/09/28 11:58:37;;;;;;;9.65;2.53;;;;;;;;;;5055068;28;20032;-25
2022/09/28 12:01:22;;;;;;;5.45;2.30;;;;;;;;;;5055071;28;20370;-27
2022/09/28 12:03:51;;;;;;;5.57;1.83;;;;;;;;;;5054355;28;20045;-28
2022/09/28 12:06:23;;;;;;;4.65;1.60;;;;;;;;;;5054775;28;20021;-25
2022/09/28 12:08:53;;;;;;;16.70;2.00;;;;;;;;;;5055005;28;20033;-26
2022/09/28 12:11:21;;;;;;;10.98;2.00;;;;;;;;;;5054827;28;20353;-28
2022/09/28 12:13:50;;;;;;;5.30;1.40;;;;;;;;;;5054748;28;20457;-25
2022/09/28 12:16:21;;;;;;;17.23;2.15;;;;;;;;;;5054570;28;20025;-27
2022/09/28 12:18:47;;;;;;;;;;;;;;;;;;5055182;28;20458;-25
2022/09/28 12:21:13;;;;;;;16.02;3.35;;;;;;;;;;5054813;28;19908;-28
2022/09/28 12:23:41;;;;;;;16.75;1.85;;;;;;;;;;5054433;28;20100;-26
2022/09/28 12:26:26;;;;;;;13.63;2.53;;;;;;;;;;5054564;28;20469;-26
2022/09/28 12:28:55;;;;;;;7.68;1.70;;;;;;;;;;5054573;28;20040;-25
2022/09/28 12:31:40;;;;;;;8.32;1.67;;;;;;;;;;5054186;28;20033;-31
2022/09/28 12:34:09;;;;;;;14.10;2.28;;;;;;;;;;5054639;28;20049;-26
2022/09/28 12:37:07;;;;;;;17.48;2.03;;;;;;;;;;5036592;28;20104;-26
2022/09/28 12:39:56;;;;;;;12.65;3.35;;;;;;;;;;5010723;28;20128;-28
2022/09/28 12:42:39;;;;;;;13.18;1.83;;;;;;;;;;5054313;28;20024;-25
2022/09/28 12:45:17;;;;;;;18.73;4.07;;;;;;;;;;5054320;28;20033;-27
2022/09/28 12:47:49;;;;;;;26.73;3.88;;;;;;;;;;5053906;28;20049;-25
2022/09/28 12:50:19;;;;;;;19.02;3.65;;;;;;;;;;5054069;28;20033;-30
2022/09/28 12:53:05;;;;;;;16.40;2.10;;;;;;;;;;5053749;28;20029;-25
2022/09/28 12:55:31;;;;;;;20.15;2.72;;;;;;;;;;5054282;28;20024;-27
2022/09/28 12:58:08;;;;;;;22.20;2.47;;;;;;;;;;5053939;28;20032;-28
2022/09/28 13:01:01;;;;;;;9.20;2.45;;;;;;;;;;5053801;28;20036;-26
2022/09/28 13:03:29;;;;;;;31.48;2.58;;;;;;;;;;5049865;28;20045;-29
2022/09/28 13:06:14;;;;;;;28.15;3.25;;;;;;;;;;5053563;28;20454;-31
2022/09/28 13:08:54;;;;;;;17.48;2.83;;;;;;;;;;5036607;28;20039;-25
2022/09/28 13:11:35;;;;;;;13.93;2.58;;;;;;;;;;5054005;28;20029;-26
2022/09/28 13:14:01;;;;;;;;;;;;;;;;;;5055153;28;20025;-27
2022/09/28 13:16:31;;;;;;;16.98;2.78;;;;;;;;;;5057868;28;19908;-25
2022/09/28 13:19:16;;;;;;;22.73;3.03;;;;;;;;;;5057835;28;20027;-28
2022/09/28 13:22:01;;;;;;;19.00;2.78;;;;;;;;;;5057785;28;20025;-24
2022/09/28 13:24:30;;;;;;;19.00;2.58;;;;;;;;;;5057750;28;20083;-25
2022/09/28 13:26:58;;;;;;;22.30;3.38;;;;;;;;;;5057958;28;20358;-26
2022/09/28 13:29:25;;;;;;;19.35;2.55;;;;;;;;;;5057753;28;20060;-28
2022/09/28 13:31:56;;;;;;;22.58;2.90;;;;;;;;;;5057578;28;20029;-26
2022/09/28 13:34:24;;;;;;;16.70;3.17;;;;;;;;;;5057988;28;20029;-25
2022/09/28 13:37:10;;;;;;;14.07;2.30;;;;;;;;;;5057597;28;20407;-28
2022/09/28 13:39:45;;;;;;;18.83;2.55;;;;;;;;;;5057546;28;20021;-26
2022/09/28 13:42:22;;;;;;;20.38;2.95;;;;;;;;;;5057336;28;20095;-23
2022/09/28 13:44:48;;;;;;;18.58;2.05;;;;;;;;;;5057699;28;20307;-27
2022/09/28 13:47:15;;;;;;;9.55;1.73;;;;;;;;;;5057325;28;20059;-27
2022/09/28 13:49:53;;;;;;;18.77;2.63;;;;;;;;;;5057156;28;20043;-25
2022/09/28 13:52:19;;;;;;;14.18;2.20;;;;;;;;;;5057290;28;20029;-26
2022/09/28 13:55:05;;;;;;;13.82;2.42;;;;;;;;;;5057079;28;20041;-28
2022/09/28 13:57:31;;;;;;;23.63;2.80;;;;;;;;;;5057116;28;20104;-25
2022/09/28 14:00:18;;;;;;;20.60;3.15;;;;;;;;;;5057265;28;20037;-28
2022/09/28 14:02:46;;;;;;;15.57;2.33;;;;;;;;;;5056509;28;20045;-25
2022/09/28 14:05:40;;;;;;;18.70;1.98;;;;;;;;;;5056950;28;20033;-24
2022/09/28 14:08:10;;;;;;;12.93;2.05;;;;;;;;;;5053859;28;20041;-23
2022/09/28 14:10:48;;;;;;;23.42;3.03;;;;;;;;;;5056993;28;20037;-26
2022/09/28 14:13:34;;;;;;;16.20;2.45;;;;;;;;;;5057096;28;20045;-26
2022/09/28 14:16:20;;;;;;;19.00;2.35;;;;;;;;;;5057398;28;20108;-24
2022/09/28 14:18:50;;;;;;;12.10;2.50;;;;;;;;;;5057136;28;20028;-23
2022/09/28 14:21:41;;;;;;;21.42;2.30;;;;;;;;;;5057058;28;20021;-23
2022/09/28 14:24:11;;;;;;;14.80;2.72;;;;;;;;;;5056784;28;20017;-27
2022/09/28 14:26:47;;;;;;;11.10;2.10;;;;;;;;;;5056869;28;20033;-24
2022/09/28 14:29:16;;;;;;;14.75;2.17;;;;;;;;;;5057035;28;20021;-26
2022/09/28 14:31:44;;;;;;;13.77;2.42;;;;;;;;;;5056825;28;20098;-25
2022/09/28 14:34:23;;;;;;;13.68;2.30;;;;;;;;;;5056475;28;20032;-27
2022/09/28 14:42:21;;;;;;;11.27;2.13;;;;;;;;;;5056843;28;20071;-24
2022/09/28 14:45:03;;;;;;;15.65;2.25;;;;;;;;;;5039225;28;20033;-26
2022/09/28 14:47:36;;;;;;;10.82;2.15;;;;;;;;;;5056633;28;20044;-24
2022/09/28 14:50:22;;;;;;;20.08;2.88;;;;;;;;;;5056468;28;20025;-25
2022/09/28 14:52:51;;;;;;;15.55;1.77;;;;;;;;;;5056186;28;20079;-25
2022/09/28 14:55:18;;;;;;;9.70;1.70;;;;;;;;;;5056464;28;20029;-24
2022/09/28 14:57:50;;;;;;;16.60;3.58;;;;;;;;;;5038544;28;20123;-25
2022/09/28 15:00:21;;;;;;;15.63;3.67;;;;;;;;;;5039282;28;20438;-25
2022/09/28 15:02:50;;;;;;;11.23;3.28;;;;;;;;;;5038135;28;20251;-25
2022/09/28 15:05:19;;;;;;;14.25;2.78;;;;;;;;;;5038050;28;20029;-23
2022/09/28 15:07:47;;;;;;;13.35;2.13;;;;;;;;;;5055641;28;20106;-23
2022/09/28 15:10:32;;;;;;;19.83;3.60;;;;;;;;;;5055598;28;20037;-23
2022/09/28 15:13:00;;;;;;;10.73;1.92;;;;;;;;;;5055509;28;20082;-25